Samnorwood, Texas
Current Conditions -  °F | °C
As of 1:53 AM on Thursday 18 Dec 2014 (Local Time) from KCDS Reporting Station
Haze Haze  
Wind Chill: 36°   Ceiling: 200
Heat Index: 40°   Visibility: 1.2mi
Dew Point: 39°   Wind: 6mph
Humidity: 97%   Direction: 160°SSE
Pressure: 30.05"   Gusts: NA
Location:  34.8405°N, 100.2049°W
Report Text: KCDS 180753Z AUTO 16005KT 1 1/4SM BR OVC002 04/04 A3005 RMK AO2 SLP178 T00440039
Loading
Personal Weather Stations






























Interactive Weather Map New forecast layout! Learn more

10-Day Weather Forecast

Advertisements
Track Severe Weather on mobile